createdAt,value
2022-12-17T00:02:42.127Z,29.98
2022-12-17T00:05:27.779Z,28.45
2022-12-17T00:08:19.954Z,27.27
2022-12-17T00:11:05.472Z,25.38
2022-12-17T00:14:07.491Z,25.63
2022-12-17T00:16:53.077Z,25.30
2022-12-17T00:19:56.350Z,24.13
2022-12-17T00:22:41.893Z,24.10
2022-12-17T00:25:28.527Z,24.40
2022-12-17T00:28:14.124Z,21.45
2022-12-17T00:30:59.435Z,20.38
2022-12-17T00:33:44.724Z,19.67
2022-12-17T00:36:30.196Z,19.05
2022-12-17T00:39:15.814Z,17.13
2022-12-17T00:42:01.254Z,17.38
2022-12-17T00:44:46.401Z,18.35
2022-12-17T00:47:31.820Z,17.05
2022-12-17T00:50:17.031Z,18.58
2022-12-17T01:20:17.464Z,17.42
2022-12-17T01:23:08.749Z,16.65
2022-12-17T01:25:54.337Z,17.85
2022-12-17T01:28:42.826Z,20.27
2022-12-17T01:31:34.300Z,20.50
2022-12-17T01:34:20.191Z,20.83
2022-12-17T01:37:06.331Z,19.67
2022-12-17T01:39:51.657Z,19.73
2022-12-17T01:42:36.957Z,20.13
2022-12-17T01:45:24.113Z,21.20
2022-12-17T01:48:21.733Z,20.25
2022-12-17T01:51:09.342Z,23.20
2022-12-17T01:53:56.718Z,24.38
2022-12-17T01:56:43.671Z,22.55
2022-12-17T01:59:28.809Z,22.70
2022-12-17T02:02:14.357Z,23.70
2022-12-17T02:04:59.881Z,23.42
2022-12-17T02:08:03.806Z,23.05
2022-12-17T02:11:07.765Z,20.77
2022-12-17T02:14:00.025Z,21.58
2022-12-17T02:16:51.178Z,22.15
2022-12-17T02:19:55.768Z,21.52
2022-12-17T02:22:58.697Z,21.83
2022-12-17T02:26:09.361Z,22.15
2022-12-17T02:28:57.641Z,15.88
2022-12-17T02:31:43.559Z,21.05
2022-12-17T02:34:28.998Z,21.00
2022-12-17T02:37:14.369Z,22.10
2022-12-17T02:39:59.866Z,20.88
2022-12-17T02:42:45.279Z,20.67
2022-12-17T02:45:31.242Z,20.15
2022-12-17T02:48:16.572Z,19.95
2022-12-17T02:51:01.923Z,20.48
2022-12-17T02:53:47.590Z,18.75
2022-12-17T02:56:32.907Z,18.85
2022-12-17T02:59:18.217Z,17.52
2022-12-17T03:02:03.751Z,19.23
2022-12-17T03:04:50.239Z,17.75
2022-12-17T03:07:35.572Z,18.63
2022-12-17T03:10:21.451Z,18.13
2022-12-17T03:13:06.879Z,19.35
2022-12-17T03:15:52.135Z,20.50
2022-12-17T03:18:37.459Z,19.20
2022-12-17T03:21:23.082Z,18.52
2022-12-17T03:24:08.401Z,19.85
2022-12-17T03:26:53.979Z,18.42
2022-12-17T03:29:39.315Z,17.98
2022-12-17T03:32:24.776Z,17.98
2022-12-17T03:35:10.157Z,17.95
2022-12-17T03:37:55.499Z,17.50
2022-12-17T03:40:40.903Z,19.25
2022-12-17T03:43:27.206Z,19.85
2022-12-17T03:46:13.214Z,19.45
2022-12-17T03:48:58.669Z,18.42
2022-12-17T03:51:44.250Z,17.40
2022-12-17T03:54:29.755Z,18.05
2022-12-17T03:57:16.416Z,17.50
2022-12-17T04:00:02.049Z,17.85
2022-12-17T04:02:57.792Z,17.60
2022-12-17T04:05:43.654Z,17.15
2022-12-17T04:08:28.981Z,16.90
2022-12-17T04:11:14.365Z,16.30
2022-12-17T04:13:59.842Z,16.05
2022-12-17T04:16:45.135Z,16.30
2022-12-17T04:19:30.282Z,16.45
2022-12-17T04:22:15.580Z,14.32
2022-12-17T04:25:01.009Z,16.35
2022-12-17T04:27:46.416Z,15.65
2022-12-17T04:30:32.001Z,14.73
2022-12-17T04:33:17.261Z,16.33
2022-12-17T04:36:02.641Z,15.88
2022-12-17T04:38:47.899Z,13.43
2022-12-17T04:41:43.941Z,14.95
2022-12-17T04:44:29.649Z,15.02
2022-12-17T04:47:15.243Z,14.88
2022-12-17T04:50:00.657Z,14.57
2022-12-17T04:52:45.993Z,13.85
2022-12-17T04:55:31.236Z,12.15
2022-12-17T04:58:23.723Z,12.27
2022-12-17T05:01:11.153Z,12.43
2022-12-17T05:03:56.576Z,11.60
2022-12-17T05:06:42.754Z,12.25
2022-12-17T05:09:28.149Z,11.68
2022-12-17T05:12:13.429Z,11.18
2022-12-17T05:14:58.877Z,10.45
2022-12-17T05:17:44.271Z,11.52
2022-12-17T05:20:29.756Z,11.40
2022-12-17T05:23:15.143Z,12.68
2022-12-17T05:26:00.468Z,12.45
2022-12-17T05:28:45.832Z,11.25
2022-12-17T05:31:31.040Z,11.27
2022-12-17T05:34:16.338Z,11.95
2022-12-17T05:40:36.708Z,17.95
2022-12-17T05:43:25.733Z,23.08
2022-12-17T05:46:11.021Z,20.73
2022-12-17T05:48:56.234Z,24.05
2022-12-17T05:51:41.589Z,22.45
2022-12-17T05:54:27.137Z,21.50
2022-12-17T05:57:12.843Z,18.48
2022-12-17T05:59:58.200Z,18.58
2022-12-17T06:02:43.608Z,19.00
2022-12-17T06:05:29.065Z,16.45
2022-12-17T06:08:27.339Z,12.45
2022-12-17T06:11:12.841Z,12.10
2022-12-17T06:13:58.415Z,10.55
2022-12-17T06:16:43.807Z,10.15
2022-12-17T06:19:29.586Z,9.05
2022-12-17T06:22:15.139Z,10.98
2022-12-17T06:25:00.489Z,10.88
2022-12-17T06:27:45.892Z,10.40
2022-12-17T06:30:31.427Z,12.52
2022-12-17T06:33:27.274Z,13.52
2022-12-17T06:36:21.351Z,11.52
2022-12-17T06:39:07.705Z,11.75
2022-12-17T06:41:52.898Z,11.70
2022-12-17T06:44:45.661Z,11.68
2022-12-17T06:47:30.979Z,11.35
2022-12-17T06:50:16.297Z,10.93
2022-12-17T06:53:01.774Z,11.55
2022-12-17T06:55:47.257Z,10.70
2022-12-17T06:58:32.473Z,9.70
2022-12-17T07:01:18.002Z,9.52
2022-12-17T07:04:03.419Z,8.88
2022-12-17T07:06:48.660Z,9.70
2022-12-17T07:09:34.260Z,10.77
2022-12-17T07:12:19.797Z,11.35
2022-12-17T07:15:05.156Z,10.48
2022-12-17T07:17:50.849Z,10.10
2022-12-17T07:20:36.242Z,11.35
2022-12-17T07:23:21.852Z,11.02
2022-12-17T07:26:07.271Z,11.15
2022-12-17T07:28:52.660Z,11.88
2022-12-17T07:31:38.096Z,11.35
2022-12-17T07:34:23.360Z,11.90
2022-12-17T07:37:08.686Z,11.20
2022-12-17T07:39:55.382Z,11.93
2022-12-17T07:42:40.763Z,12.65
2022-12-17T07:45:27.082Z,12.88
2022-12-17T07:48:12.977Z,12.45
2022-12-17T07:50:58.645Z,13.45
2022-12-17T07:53:44.115Z,13.75
2022-12-17T07:56:29.541Z,13.95
2022-12-17T07:59:15.114Z,13.35
2022-12-17T08:02:00.817Z,12.70
2022-12-17T08:04:46.505Z,13.60
2022-12-17T08:07:31.761Z,14.52
2022-12-17T08:10:17.340Z,16.58
2022-12-17T08:13:14.340Z,18.10
2022-12-17T08:15:59.941Z,17.05
2022-12-17T08:18:47.215Z,12.38
2022-12-17T08:21:32.518Z,10.90
2022-12-17T08:24:17.827Z,11.38
2022-12-17T08:27:03.117Z,15.70
2022-12-17T08:29:48.831Z,16.83
2022-12-17T08:32:34.217Z,14.63
2022-12-17T08:35:19.484Z,18.08
2022-12-17T08:38:04.904Z,17.55
2022-12-17T08:40:50.155Z,15.15
2022-12-17T08:43:35.773Z,15.52
2022-12-17T08:46:21.610Z,15.68
2022-12-17T08:49:06.988Z,16.58
2022-12-17T08:51:52.689Z,18.95
2022-12-17T08:54:38.013Z,21.48
2022-12-17T08:57:31.573Z,20.35
2022-12-17T09:00:17.688Z,19.20
2022-12-17T09:03:03.306Z,20.17
2022-12-17T09:05:56.564Z,22.55
2022-12-17T09:08:42.067Z,20.33
2022-12-17T09:11:27.429Z,23.08
2022-12-17T09:14:12.879Z,23.48
2022-12-17T09:16:58.361Z,21.58
2022-12-17T09:19:43.689Z,25.33
2022-12-17T09:22:28.873Z,24.52
2022-12-17T09:25:14.262Z,25.85
2022-12-17T09:27:59.506Z,24.83
2022-12-17T09:30:44.824Z,25.75
2022-12-17T09:33:36.681Z,25.70
2022-12-17T09:36:23.298Z,27.25
2022-12-17T09:39:08.596Z,27.08
2022-12-17T09:42:03.108Z,24.63
2022-12-17T09:45:28.073Z,23.45
2022-12-17T09:48:32.428Z,24.27
2022-12-17T09:51:17.973Z,24.90
2022-12-17T09:54:04.359Z,22.83
2022-12-17T09:56:50.646Z,24.55
2022-12-17T09:59:37.845Z,26.40
2022-12-17T10:02:36.213Z,25.42
2022-12-17T10:05:23.246Z,25.58
2022-12-17T10:08:08.593Z,26.48
2022-12-17T10:10:53.748Z,21.42
2022-12-17T10:13:42.417Z,23.30
2022-12-17T10:16:55.579Z,24.38
2022-12-17T10:19:56.494Z,22.57
2022-12-17T10:22:41.962Z,23.77
2022-12-17T10:25:39.492Z,20.88
2022-12-17T10:28:28.973Z,21.42
2022-12-17T10:31:14.218Z,25.33
2022-12-17T10:34:00.125Z,21.30
2022-12-17T10:36:45.930Z,23.08
2022-12-17T10:39:40.798Z,29.98
2022-12-17T10:42:47.034Z,23.10
2022-12-17T10:45:40.080Z,22.40
2022-12-17T10:49:14.739Z,22.02
2022-12-17T10:54:49.283Z,19.58
2022-12-17T10:58:20.399Z,21.00
2022-12-17T11:01:05.678Z,21.85
2022-12-17T11:04:11.059Z,21.48
2022-12-17T11:07:08.117Z,19.30
2022-12-17T11:10:08.942Z,18.60
2022-12-17T11:13:08.228Z,19.88
2022-12-17T11:16:01.840Z,21.83
2022-12-17T11:19:15.680Z,20.15
2022-12-17T11:22:07.783Z,20.33
2022-12-17T11:25:11.380Z,22.75
2022-12-17T11:28:04.686Z,23.52
2022-12-17T11:30:51.931Z,20.55
2022-12-17T11:33:37.775Z,20.85
2022-12-17T11:36:51.428Z,19.58
2022-12-17T11:40:06.353Z,20.15
2022-12-17T11:43:10.541Z,21.38
2022-12-17T11:45:57.452Z,21.00
2022-12-17T11:48:48.956Z,21.65
2022-12-17T11:51:37.227Z,21.55
2022-12-17T11:54:34.814Z,22.80
2022-12-17T11:57:37.316Z,21.33
2022-12-17T12:00:34.102Z,22.83
2022-12-17T12:03:39.699Z,22.17
2022-12-17T12:06:32.874Z,22.00
2022-12-17T12:10:10.180Z,24.08
2022-12-17T12:13:19.862Z,24.92
2022-12-17T12:16:18.959Z,24.00
2022-12-17T12:19:22.955Z,25.30
2022-12-17T12:24:59.788Z,21.92
2022-12-17T12:28:03.831Z,24.77
2022-12-17T12:31:13.289Z,22.95
2022-12-17T12:34:19.251Z,24.10
2022-12-17T12:37:04.684Z,24.10
2022-12-17T12:40:02.553Z,24.65
2022-12-17T12:42:55.966Z,24.00
2022-12-17T12:46:09.710Z,25.27
2022-12-17T12:49:11.383Z,25.83
2022-12-17T12:51:57.013Z,28.02
2022-12-17T12:55:10.314Z,23.77
2022-12-17T12:57:56.708Z,25.88
2022-12-17T13:00:42.097Z,23.65
2022-12-17T13:03:39.931Z,27.85
2022-12-17T13:06:07.093Z,25.08
2022-12-17T13:08:34.277Z,24.88
2022-12-17T13:11:26.248Z,25.60
2022-12-17T13:13:58.716Z,25.85
2022-12-17T13:16:31.815Z,26.02
2022-12-17T13:21:42.582Z,26.67
2022-12-17T13:24:13.380Z,29.25
2022-12-17T13:26:40.134Z,29.60
2022-12-17T13:29:29.728Z,29.25
2022-12-17T13:32:15.986Z,30.98
2022-12-17T13:35:10.257Z,28.75
2022-12-17T13:37:55.171Z,27.10
2022-12-17T13:40:45.524Z,26.27
2022-12-17T13:43:23.983Z,26.90
2022-12-17T13:45:51.489Z,27.83
2022-12-17T13:48:23.385Z,27.27
2022-12-17T13:50:59.695Z,26.75
2022-12-17T13:53:27.372Z,28.60
2022-12-17T13:55:55.394Z,28.98
2022-12-17T13:58:26.323Z,27.38
2022-12-17T14:01:11.040Z,27.90
2022-12-17T14:04:06.636Z,25.58
2022-12-17T14:06:30.439Z,25.85
2022-12-17T14:08:57.257Z,26.98
2022-12-17T14:11:42.857Z,27.02
2022-12-17T14:14:37.948Z,25.15
2022-12-17T14:17:04.820Z,26.58
2022-12-17T14:19:32.157Z,25.70
2022-12-17T14:21:59.159Z,25.75
2022-12-17T14:24:29.077Z,22.38
2022-12-17T14:26:58.440Z,23.05
2022-12-17T14:29:27.128Z,23.98
2022-12-17T14:31:59.784Z,24.55
2022-12-17T14:34:26.617Z,21.63
2022-12-17T14:36:58.011Z,22.25
2022-12-17T14:39:27.005Z,22.20
2022-12-17T14:42:14.487Z,21.67
2022-12-17T14:44:50.217Z,18.42
2022-12-17T14:47:26.025Z,19.45
2022-12-17T14:50:01.407Z,19.00
2022-12-17T14:52:40.720Z,19.85
2022-12-17T14:55:38.651Z,19.30
2022-12-17T14:58:11.523Z,16.58
2022-12-17T15:00:51.368Z,14.10
2022-12-17T15:03:23.342Z,12.32
2022-12-17T15:05:56.720Z,11.68
2022-12-17T15:08:23.547Z,11.38
2022-12-17T15:10:50.419Z,11.57
2022-12-17T15:13:17.180Z,12.30
2022-12-17T15:15:44.835Z,16.70
2022-12-17T15:18:11.751Z,13.60
2022-12-17T15:20:38.533Z,16.35
2022-12-17T15:23:05.396Z,15.85
2022-12-17T15:25:32.249Z,16.25
2022-12-17T15:32:22.609Z,24.40
2022-12-17T15:34:50.553Z,28.20
2022-12-17T15:37:20.974Z,30.13
2022-12-17T15:39:50.120Z,29.47
2022-12-17T15:42:36.910Z,27.50
2022-12-17T15:45:05.631Z,24.88
2022-12-17T15:47:32.374Z,21.77
2022-12-17T15:49:59.166Z,19.67
2022-12-17T15:52:26.028Z,21.38
2022-12-17T15:54:52.899Z,24.65
2022-12-17T15:57:19.665Z,23.63
2022-12-17T15:59:46.410Z,22.23
2022-12-17T16:02:13.504Z,21.88
2022-12-17T16:04:41.066Z,21.52
2022-12-17T16:07:07.980Z,22.05
2022-12-17T16:09:34.788Z,22.52
2022-12-17T16:12:01.554Z,26.67
2022-12-17T16:14:29.064Z,26.80
2022-12-17T16:16:55.811Z,23.73
2022-12-17T16:19:22.611Z,25.52
2022-12-17T16:21:49.438Z,25.42
2022-12-17T16:24:16.214Z,33.42
2022-12-17T16:26:43.006Z,33.65
2022-12-17T16:29:09.757Z,29.25
2022-12-17T16:31:37.356Z,30.42
2022-12-17T16:34:08.740Z,33.67
2022-12-17T16:36:35.557Z,33.97
2022-12-17T16:39:03.353Z,35.85
2022-12-17T16:41:30.217Z,40.47
2022-12-17T16:43:58.178Z,41.10
2022-12-17T16:46:29.064Z,43.83
2022-12-17T16:48:56.928Z,41.53
2022-12-17T16:51:28.968Z,39.00
2022-12-17T16:53:56.912Z,38.25
2022-12-17T16:56:25.695Z,39.03
2022-12-17T16:58:52.706Z,40.85
2022-12-17T17:01:27.038Z,43.97
2022-12-17T17:03:54.278Z,43.72
2022-12-17T17:06:21.230Z,45.30
2022-12-17T17:08:47.984Z,45.67
2022-12-17T17:11:16.717Z,45.78
2022-12-17T17:13:43.600Z,41.65
2022-12-17T17:16:10.631Z,39.45
2022-12-17T17:18:37.824Z,39.65
2022-12-17T17:21:35.367Z,38.85
2022-12-17T17:24:04.008Z,36.00
2022-12-17T17:26:32.044Z,35.53
2022-12-17T17:28:59.124Z,35.72
2022-12-17T17:31:46.343Z,34.92
2022-12-17T17:34:13.913Z,33.63
2022-12-17T17:36:40.757Z,31.95
2022-12-17T17:39:08.063Z,30.50
2022-12-17T17:41:35.249Z,26.27
2022-12-17T17:44:05.785Z,26.73
2022-12-17T17:46:32.872Z,24.67
2022-12-17T17:49:00.983Z,27.23
2022-12-17T17:52:07.245Z,26.73
2022-12-17T17:54:19.056Z,27.13
2022-12-17T17:56:45.839Z,27.95
2022-12-17T17:59:14.151Z,28.58
2022-12-17T18:01:45.389Z,30.27
2022-12-17T18:04:13.430Z,32.70
2022-12-17T18:06:57.469Z,30.92
2022-12-17T18:09:27.818Z,34.33
2022-12-17T18:11:54.628Z,36.17
2022-12-17T18:14:21.395Z,36.15
2022-12-17T18:16:48.346Z,32.80
2022-12-17T18:19:19.538Z,32.72
2022-12-17T18:21:46.639Z,36.15
2022-12-17T18:24:15.203Z,36.45
2022-12-17T18:26:42.760Z,34.45
2022-12-17T18:29:17.474Z,33.58
2022-12-17T18:31:51.351Z,32.92
2022-12-17T18:34:20.060Z,32.83
2022-12-17T18:36:47.003Z,34.78
2022-12-17T18:39:15.528Z,32.90
2022-12-17T18:42:05.470Z,34.63
2022-12-17T18:44:32.721Z,35.17
2022-12-17T18:46:59.696Z,36.45
2022-12-17T18:49:26.684Z,35.20
2022-12-17T18:51:54.141Z,38.10
2022-12-17T18:54:32.961Z,34.70
2022-12-17T18:57:01.352Z,38.03
2022-12-17T18:59:29.570Z,36.58
2022-12-17T19:01:56.700Z,38.60
2022-12-17T19:04:23.789Z,39.42
2022-12-17T19:06:53.330Z,37.53
2022-12-17T19:09:24.697Z,36.50
2022-12-17T19:11:51.774Z,36.95
2022-12-17T19:14:21.970Z,36.67
2022-12-17T19:16:49.303Z,36.55
2022-12-17T19:19:16.106Z,35.15
2022-12-17T19:21:42.945Z,31.80
2022-12-17T19:24:12.593Z,35.65
2022-12-17T19:26:39.496Z,33.22
2022-12-17T19:29:08.429Z,35.70
2022-12-17T19:31:35.430Z,30.95
2022-12-17T19:34:04.884Z,32.63
2022-12-17T19:36:32.975Z,31.23
2022-12-17T19:39:02.581Z,31.23
2022-12-17T19:41:32.504Z,30.10
2022-12-17T19:44:11.618Z,30.42
2022-12-17T19:46:38.460Z,25.15
2022-12-17T19:49:08.396Z,28.92
2022-12-17T19:51:38.820Z,27.45
2022-12-17T19:54:08.967Z,28.95
2022-12-17T19:56:36.604Z,28.85
2022-12-17T19:59:07.277Z,30.73
2022-12-17T20:01:36.795Z,27.30
2022-12-17T20:04:04.735Z,26.10
2022-12-17T20:06:32.591Z,20.92
2022-12-17T20:08:59.599Z,18.20
2022-12-17T20:11:35.878Z,23.98
2022-12-17T20:14:14.593Z,24.90
2022-12-17T20:16:46.051Z,22.10
2022-12-17T20:19:18.515Z,24.67
2022-12-17T20:21:46.268Z,25.15
2022-12-17T20:24:13.651Z,24.83
2022-12-17T20:26:40.776Z,23.27
2022-12-17T20:29:08.092Z,22.77
2022-12-17T20:31:35.706Z,22.92
2022-12-17T20:34:06.759Z,24.08
2022-12-17T20:36:34.055Z,22.73
2022-12-17T20:39:01.843Z,20.95
2022-12-17T20:41:29.551Z,18.25
2022-12-17T20:43:56.432Z,18.02
2022-12-17T20:46:24.145Z,17.30
2022-12-17T20:48:51.484Z,13.65
2022-12-17T20:51:24.921Z,15.88
2022-12-17T20:53:52.816Z,14.77
2022-12-17T20:56:23.366Z,13.45
2022-12-17T20:58:58.320Z,13.95
2022-12-17T21:01:26.518Z,13.05
2022-12-17T21:03:54.513Z,12.75
2022-12-17T21:06:46.672Z,13.25
2022-12-17T21:09:13.937Z,14.13
2022-12-17T21:11:41.692Z,14.10
2022-12-17T21:14:10.622Z,12.68
2022-12-17T21:16:37.853Z,11.98
2022-12-17T21:19:04.696Z,12.77
2022-12-17T21:21:32.749Z,13.65
2022-12-17T21:23:59.707Z,13.13
2022-12-17T21:26:35.073Z,13.00
2022-12-17T21:29:03.310Z,13.00
2022-12-17T21:31:34.458Z,11.75
2022-12-17T21:34:03.022Z,11.25
2022-12-17T21:36:30.862Z,13.98
2022-12-17T21:38:58.295Z,12.18
2022-12-17T21:41:33.447Z,12.05
2022-12-17T21:44:01.888Z,11.57
2022-12-17T21:46:29.639Z,10.77
2022-12-17T21:48:57.622Z,11.07
2022-12-17T21:51:24.754Z,12.98
2022-12-17T21:54:00.135Z,12.90
2022-12-17T21:56:27.385Z,12.75
2022-12-17T21:58:59.222Z,11.63
2022-12-17T22:01:28.335Z,10.98
2022-12-17T22:03:56.917Z,13.07
2022-12-17T22:06:25.960Z,12.52
2022-12-17T22:09:00.286Z,12.47
2022-12-17T22:11:30.210Z,13.07
2022-12-17T22:14:08.112Z,12.93
2022-12-17T22:16:43.603Z,14.00
2022-12-17T22:19:11.754Z,14.13
2022-12-17T22:21:40.531Z,14.30
2022-12-17T22:24:08.027Z,13.95
2022-12-17T22:26:35.069Z,19.17
2022-12-17T22:29:03.081Z,16.00
2022-12-17T22:31:48.892Z,14.77
2022-12-17T22:35:29.015Z,12.38
2022-12-17T22:39:43.484Z,15.45
2022-12-17T22:42:33.015Z,16.00
2022-12-17T22:44:46.300Z,14.52
2022-12-17T22:45:42.437Z,10.77
2022-12-17T22:48:09.830Z,11.05
2022-12-17T22:50:46.309Z,9.30
2022-12-17T22:53:24.166Z,11.55
2022-12-17T22:55:52.306Z,9.30
2022-12-17T22:58:20.011Z,9.18
2022-12-17T23:00:46.820Z,10.77
2022-12-17T23:03:13.728Z,9.75
2022-12-17T23:05:40.600Z,9.43
2022-12-17T23:08:07.376Z,10.25
2022-12-17T23:10:34.132Z,9.48
2022-12-17T23:13:03.209Z,9.20
2022-12-17T23:15:33.210Z,9.25
2022-12-17T23:18:01.001Z,9.00
2022-12-17T23:20:28.826Z,9.32
2022-12-17T23:22:55.940Z,9.50
2022-12-17T23:25:22.685Z,9.10
2022-12-17T23:27:49.712Z,8.60
2022-12-17T23:30:16.698Z,8.65
2022-12-17T23:32:43.909Z,9.05
2022-12-17T23:35:10.848Z,9.27
2022-12-17T23:37:39.944Z,9.88
2022-12-17T23:40:09.288Z,8.45
2022-12-17T23:42:36.047Z,10.90
2022-12-17T23:45:02.950Z,9.75
2022-12-17T23:47:29.705Z,8.93
2022-12-17T23:49:56.446Z,10.40
2022-12-17T23:52:24.256Z,10.35
2022-12-17T23:54:51.026Z,10.73
2022-12-17T23:57:17.771Z,11.85
2022-12-17T23:59:44.514Z,9.68
